Time;durP1;ratioP1;P1;durP2;ratioP2;P2;SDS_P1;SDS_P2;PMS_P1;PMS_P2;Temp;Humidity;BMP_temperature;BMP_pressure;BME280_temperature;BME280_humidity;BME280_pressure;Samples;Min_cycle;Max_cycle;Signal;HPM_P1;HPM_P2
2023/12/03 00:01:58;;;;;;;;;54.75;42.00;;;;;-0.78;100.00;101963.97;6217034;22;45244;-71
2023/12/03 00:04:23;;;;;;;;;50.75;39.75;;;;;-0.60;100.00;101998.06;6217472;22;45297;-71
2023/12/03 00:06:49;;;;;;;;;42.50;36.75;;;;;-0.63;100.00;101992.81;6217269;22;45390;-71
2023/12/03 00:09:15;;;;;;;;;46.50;40.50;;;;;-0.69;100.00;101979.69;6217627;22;45174;-71
2023/12/03 00:11:41;;;;;;;;;37.50;31.50;;;;;-0.79;100.00;101975.22;6217471;22;45210;-71
2023/12/03 00:14:07;;;;;;;;;44.75;40.00;;;;;-0.62;100.00;102004.94;6217355;22;45523;-71
2023/12/03 00:16:32;;;;;;;;;44.50;39.75;;;;;-0.63;100.00;102008.41;6216860;22;45324;-71
2023/12/03 00:18:58;;;;;;;;;44.50;34.00;;;;;-0.68;100.00;101998.75;6190581;22;45508;-71
2023/12/03 00:21:23;;;;;;;;;45.00;37.75;;;;;-0.70;100.00;101997.88;6217778;22;45309;-71
2023/12/03 00:23:48;;;;;;;;;39.50;37.00;;;;;-0.74;100.00;101993.47;6190422;22;45505;-71
2023/12/03 00:26:14;;;;;;;;;47.50;36.25;;;;;-0.76;100.00;101990.84;6190335;22;46783;-71
2023/12/03 00:28:39;;;;;;;;;40.25;33.25;;;;;-0.69;100.00;102010.03;6190219;22;45230;-71
2023/12/03 00:31:05;;;;;;;;;56.50;42.25;;;;;-0.70;100.00;102011.75;6217077;22;45173;-71
2023/12/03 00:33:30;;;;;;;;;45.00;34.50;;;;;-0.71;100.00;102011.69;6217369;22;45426;-71
2023/12/03 00:35:57;;;;;;;;;52.50;36.00;;;;;-0.74;100.00;101998.66;6190510;22;46866;-71
2023/12/03 00:38:22;;;;;;;;;46.00;37.00;;;;;-0.73;100.00;102006.50;6217060;22;45288;-71
2023/12/03 00:40:48;;;;;;;;;25.25;22.00;;;;;-0.77;100.00;101999.47;6217609;22;45291;-71
2023/12/03 00:43:13;;;;;;;;;39.50;33.75;;;;;-0.80;100.00;101994.25;6216393;22;45261;-71
2023/12/03 00:45:38;;;;;;;;;42.50;33.75;;;;;-0.77;100.00;101999.47;6216927;22;45372;-71
2023/12/03 00:48:04;;;;;;;;;39.00;37.50;;;;;-0.78;100.00;101989.06;6217681;22;45256;-71
2023/12/03 00:50:30;;;;;;;;;34.50;32.75;;;;;-0.77;100.00;101996.00;6217799;22;45398;-71
2023/12/03 00:52:55;;;;;;;;;35.25;30.50;;;;;-0.74;100.00;101990.88;6217353;22;45216;-70
2023/12/03 00:55:20;;;;;;;;;40.75;34.00;;;;;-0.74;100.00;101996.06;6217277;22;45414;-70
2023/12/03 00:57:46;;;;;;;;;38.50;34.00;;;;;-0.75;100.00;101996.91;6190256;22;45331;-71
2023/12/03 01:00:12;;;;;;;;;38.00;36.50;;;;;-0.77;100.00;101985.63;6216957;22;45189;-71
2023/12/03 01:02:38;;;;;;;;;36.75;32.25;;;;;-0.78;100.00;101983.84;6217613;22;45336;-70
2023/12/03 01:05:03;;;;;;;;;45.00;40.75;;;;;-0.76;100.00;101998.66;6217461;22;45281;-70
2023/12/03 01:07:29;;;;;;;;;47.75;34.50;;;;;-0.75;100.00;101996.91;6217163;22;45169;-70
2023/12/03 01:09:54;;;;;;;;;33.50;31.25;;;;;-0.83;100.00;101975.13;6217783;22;45445;-70
2023/12/03 01:12:19;;;;;;;;;35.25;28.25;;;;;-0.89;100.00;101962.91;6217016;22;45211;-71
2023/12/03 01:14:45;;;;;;;;;42.50;34.25;;;;;-0.80;100.00;101981.25;6217073;22;45274;-71
2023/12/03 01:17:10;;;;;;;;;35.75;30.50;;;;;-0.83;100.00;101977.72;6217039;22;45249;-71
2023/12/03 01:19:38;;;;;;;;;44.75;33.25;;;;;-0.98;100.00;101949.75;6217479;22;45237;-71
2023/12/03 01:22:04;;;;;;;;;37.25;29.75;;;;;-0.80;100.00;101982.97;6190214;22;45569;-71
2023/12/03 01:24:29;;;;;;;;;33.50;26.00;;;;;-0.87;100.00;101978.50;6217228;22;46080;-71
2023/12/03 01:26:55;;;;;;;;;37.50;29.00;;;;;-0.86;100.00;101975.97;6217074;22;45112;-71
2023/12/03 01:29:20;;;;;;;;;42.75;28.00;;;;;-0.83;100.00;101980.31;6217637;22;45351;-71
2023/12/03 01:31:46;;;;;;;;;32.50;26.25;;;;;-0.82;100.00;101982.09;6216894;22;45212;-71
2023/12/03 01:34:12;;;;;;;;;21.25;18.50;;;;;-0.76;100.00;101983.06;6217106;22;46404;-71
2023/12/03 01:36:38;;;;;;;;;32.50;30.25;;;;;-0.74;100.00;101978.75;6217435;22;45248;-71
2023/12/03 01:39:05;;;;;;;;;34.00;28.50;;;;;-0.70;100.00;101985.75;6217134;22;45230;-71
2023/12/03 01:41:30;;;;;;;;;30.50;23.50;;;;;-0.70;100.00;101980.56;6215520;22;45495;-71
2023/12/03 01:43:56;;;;;;;;;31.75;26.25;;;;;-0.68;100.00;101991.84;6217024;22;46315;-72
2023/12/03 01:46:22;;;;;;;;;21.75;17.25;;;;;-0.70;100.00;101975.38;6216542;22;45473;-71
2023/12/03 01:48:49;;;;;;;;;34.00;27.50;;;;;-0.66;100.00;101981.50;6216882;22;45271;-71
2023/12/03 01:51:15;;;;;;;;;36.00;33.75;;;;;-0.68;100.00;101975.38;6217292;22;45238;-71
2023/12/03 01:53:42;;;;;;;;;35.25;28.00;;;;;-0.71;100.00;101972.72;6216847;22;46129;-71
2023/12/03 01:56:09;;;;;;;;;24.75;18.75;;;;;-0.74;100.00;101977.88;6189808;22;45376;-71
2023/12/03 01:58:35;;;;;;;;;26.50;23.25;;;;;-0.76;100.00;101964.88;6191046;22;45297;-71
2023/12/03 02:01:00;;;;;;;;;37.50;26.50;;;;;-0.65;100.00;101971.13;6216434;22;45281;-71
2023/12/03 02:03:26;;;;;;;;;41.25;29.25;;;;;-0.69;100.00;101960.66;6216666;22;46150;-71
2023/12/03 02:06:09;;;;;;;;;26.75;24.75;;;;;-0.52;100.00;101978.28;6217230;22;45243;-71
2023/12/03 02:08:35;;;;;;;;;34.00;26.00;;;;;-0.57;100.00;101966.94;6217251;22;45320;-71
2023/12/03 02:11:01;;;;;;;;;26.75;21.75;;;;;-0.59;100.00;101967.78;6217004;22;45286;-71
2023/12/03 02:13:29;;;;;;;;;30.00;24.75;;;;;-0.57;100.00;101966.94;6215937;22;47096;-71
2023/12/03 02:15:54;;;;;;;;;37.50;27.00;;;;;-0.65;100.00;101952.94;6215921;22;45185;-71
2023/12/03 02:18:20;;;;;;;;;39.75;25.50;;;;;-0.50;100.00;101974.84;6189816;22;45181;-71
2023/12/03 02:20:45;;;;;;;;;18.00;15.75;;;;;-0.49;100.00;101980.03;6216804;22;45461;-71
2023/12/03 02:23:11;;;;;;;;;38.25;26.25;;;;;-0.45;100.00;101973.16;6190258;22;48115;-71
2023/12/03 02:25:39;;;;;;;;;34.50;26.25;;;;;-0.48;100.00;101975.72;6217091;22;45215;-71
2023/12/03 02:28:05;;;;;;;;;40.00;33.00;;;;;-0.45;100.00;101979.25;6217051;22;45225;-71
2023/12/03 02:30:30;;;;;;;;;32.00;28.00;;;;;-0.43;100.00;101980.16;6216348;22;45197;-71
2023/12/03 02:32:55;;;;;;;;;29.75;26.50;;;;;-0.57;100.00;101951.34;6216547;22;45296;-71
2023/12/03 02:35:21;;;;;;;;;37.75;28.50;;;;;-0.41;100.00;101973.25;6216632;22;45233;-70
2023/12/03 02:37:46;;;;;;;;;33.75;29.00;;;;;-0.40;100.00;101968.94;6188751;22;45350;-70
2023/12/03 02:40:12;;;;;;;;;32.50;26.75;;;;;-0.32;100.00;101972.53;6216779;22;45465;-70
2023/12/03 02:42:37;;;;;;;;;41.25;29.00;;;;;-0.30;99.15;101966.53;6216885;22;45268;-71
2023/12/03 02:45:03;;;;;;;;;39.75;28.75;;;;;-0.35;99.28;101954.28;6216004;22;45267;-70
2023/12/03 02:47:28;;;;;;;;;29.75;26.50;;;;;-0.21;99.25;101963.16;6216621;22;45266;-71
2023/12/03 02:49:54;;;;;;;;;33.00;29.25;;;;;-0.30;98.78;101950.94;6189528;22;45415;-70
2023/12/03 02:52:19;;;;;;;;;30.00;27.00;;;;;-0.29;98.51;101936.19;6216814;22;45225;-70
2023/12/03 02:54:44;;;;;;;;;35.25;22.25;;;;;-0.23;98.21;101941.50;6216582;22;45110;-70
2023/12/03 02:57:10;;;;;;;;;29.50;27.50;;;;;-0.11;97.60;101955.53;6217283;22;45187;-71
2023/12/03 02:59:35;;;;;;;;;33.75;25.25;;;;;-0.07;99.96;101954.75;6216691;22;45338;-70
2023/12/03 03:02:03;;;;;;;;;26.25;22.00;;;;;-0.06;100.00;101959.06;6215927;22;46082;-70
2023/12/03 03:04:28;;;;;;;;;35.75;28.50;;;;;-0.05;100.00;101959.94;6189674;22;46110;-70
2023/12/03 03:06:53;;;;;;;;;43.75;29.25;;;;;-0.10;99.46;101953.81;6216499;22;45291;-70
2023/12/03 03:09:19;;;;;;;;;38.00;28.50;;;;;-0.07;99.57;101964.25;6216446;22;45361;-70
2023/12/03 03:11:44;;;;;;;;;33.25;24.00;;;;;-0.09;99.59;101955.53;6216044;22;46328;-70
2023/12/03 03:14:09;;;;;;;;;34.75;25.25;;;;;-0.06;100.00;101960.78;6216333;22;45370;-70
2023/12/03 03:16:35;;;;;;;;;26.75;26.75;;;;;-0.06;99.16;101958.19;6216012;22;45248;-71
2023/12/03 03:19:00;;;;;;;;;28.25;22.25;;;;;-0.02;100.00;101967.78;6216362;22;45236;-71
2023/12/03 03:21:26;;;;;;;;;26.50;21.25;;;;;-0.07;100.00;101970.34;6216162;22;46536;-70
2023/12/03 03:23:51;;;;;;;;;32.75;25.75;;;;;-0.06;99.47;101973.78;6216393;22;45362;-71
2023/12/03 03:26:17;;;;;;;;;30.50;22.50;;;;;-0.02;98.72;101976.47;6216510;22;45350;-70
2023/12/03 03:28:42;;;;;;;;;21.50;17.50;;;;;0.03;97.41;101978.28;6216176;22;45300;-70
2023/12/03 03:31:08;;;;;;;;;23.50;18.25;;;;;0.08;94.94;101974.88;6215846;22;45229;-70
2023/12/03 03:33:33;;;;;;;;;30.75;23.75;;;;;-0.02;96.12;101952.19;6215907;22;45197;-70
2023/12/03 03:35:58;;;;;;;;;24.75;21.00;;;;;0.18;96.61;101971.56;6216699;22;45304;-70
2023/12/03 03:38:25;;;;;;;;;24.00;20.75;;;;;0.25;94.50;101970.78;6215976;22;45410;-70
2023/12/03 03:40:50;;;;;;;;;18.75;18.75;;;;;0.31;93.50;101970.88;6215521;22;46159;-70
2023/12/03 03:43:15;;;;;;;;;22.25;18.25;;;;;0.36;93.28;101952.72;6216337;22;45410;-70
2023/12/03 03:45:41;;;;;;;;;38.00;26.75;;;;;0.54;92.72;101976.34;6215670;22;45228;-70
2023/12/03 03:48:06;;;;;;;;;27.25;23.25;;;;;0.45;92.44;101945.91;6216120;22;45085;-70
2023/12/03 03:50:31;;;;;;;;;32.00;23.25;;;;;0.67;92.94;101964.38;6189123;22;46580;-70
2023/12/03 03:52:57;;;;;;;;;34.00;24.50;;;;;0.65;91.77;101953.94;6189285;22;45535;-70
2023/12/03 03:55:22;;;;;;;;;31.25;26.25;;;;;0.72;92.65;101960.94;6216362;22;45189;-70
2023/12/03 03:57:48;;;;;;;;;24.25;21.00;;;;;0.74;91.79;101959.25;6216140;22;45098;-70
2023/12/03 04:00:14;;;;;;;;;33.00;25.50;;;;;0.71;90.55;101942.72;6215131;22;46375;-70
2023/12/03 04:02:40;;;;;;;;;30.25;24.75;;;;;0.81;90.64;101949.78;6215195;22;45162;-70
2023/12/03 04:05:08;;;;;;;;;21.50;20.75;;;;;0.87;90.45;101955.06;6216085;22;45397;-70
2023/12/03 04:07:34;;;;;;;;;23.75;19.50;;;;;0.85;89.92;101936.78;6188693;22;45365;-70
2023/12/03 04:09:59;;;;;;;;;39.00;29.75;;;;;0.88;90.40;101942.03;6189126;22;47325;-70
2023/12/03 04:12:25;;;;;;;;;31.00;22.50;;;;;0.81;89.28;101928.94;6215442;22;45172;-70
2023/12/03 04:14:50;;;;;;;;;40.50;24.50;;;;;0.77;88.07;101912.41;6215512;22;45284;-70
2023/12/03 04:17:15;;;;;;;;;29.50;22.50;;;;;0.91;88.06;101942.09;6215883;22;45331;-70
2023/12/03 04:19:41;;;;;;;;;38.75;27.50;;;;;1.01;88.00;101959.53;6217276;22;46099;-70
2023/12/03 04:22:06;;;;;;;;;33.00;24.50;;;;;0.98;88.37;101948.25;6190403;22;45373;-70
2023/12/03 04:24:31;;;;;;;;;27.00;22.50;;;;;1.01;89.29;101956.06;6190608;22;45166;-70
2023/12/03 04:26:57;;;;;;;;;25.25;21.25;;;;;0.97;88.29;101949.09;6217422;22;45326;-70
2023/12/03 04:29:22;;;;;;;;;35.75;27.00;;;;;0.99;89.45;101947.34;6217253;22;45294;-70
2023/12/03 04:31:51;;;;;;;;;27.50;19.25;;;;;1.00;88.01;101952.59;6216836;22;45417;-70
2023/12/03 04:34:16;;;;;;;;;29.50;21.25;;;;;0.72;88.61;101902.81;6217218;22;45201;-70
2023/12/03 04:36:43;;;;;;;;;30.25;23.25;;;;;1.00;89.95;101952.59;6217248;22;45310;-70
2023/12/03 04:39:09;;;;;;;;;39.00;25.75;;;;;0.96;88.95;101937.78;6216855;22;46285;-70
2023/12/03 04:41:35;;;;;;;;;26.50;23.75;;;;;1.02;88.52;101944.78;6190193;22;45309;-70
2023/12/03 04:44:04;;;;;;;;;30.75;25.75;;;;;0.87;89.18;101923.81;6217557;22;45173;-70
2023/12/03 04:46:30;;;;;;;;;29.50;24.75;;;;;1.04;88.49;101943.09;6216176;22;45377;-70
2023/12/03 04:48:55;;;;;;;;;19.25;15.00;;;;;0.96;88.39;101927.38;6217194;22;46128;-70
2023/12/03 04:51:20;;;;;;;;;32.75;27.75;;;;;1.09;88.08;101956.13;6217104;22;45232;-70
2023/12/03 04:53:49;;;;;;;;;32.50;26.25;;;;;0.81;87.24;101902.91;6217521;22;45216;-69
2023/12/03 04:56:14;;;;;;;;;27.50;22.50;;;;;0.97;88.19;101928.25;6190357;22;45261;-70
2023/12/03 04:58:39;;;;;;;;;34.00;30.00;;;;;1.15;89.18;101948.38;6190236;22;48209;-70
2023/12/03 05:01:05;;;;;;;;;27.25;22.50;;;;;1.16;88.27;101950.13;6216358;22;45173;-70
2023/12/03 05:03:30;;;;;;;;;27.50;25.00;;;;;1.13;88.53;101943.16;6216983;22;45202;-70
2023/12/03 05:05:55;;;;;;;;;33.75;20.25;;;;;1.15;89.24;101936.22;6217103;22;45211;-70
2023/12/03 05:08:21;;;;;;;;;31.25;26.75;;;;;1.19;88.77;101940.63;6217090;22;45248;-69
2023/12/03 05:10:46;;;;;;;;;28.50;24.50;;;;;1.22;88.73;101939.75;6216817;22;45233;-70
2023/12/03 05:13:11;;;;;;;;;26.75;22.75;;;;;1.09;90.38;101914.44;6216280;22;45437;-70
2023/12/03 05:15:37;;;;;;;;;24.75;24.75;;;;;1.19;89.45;101932.78;6216689;22;45388;-70
2023/12/03 05:18:02;;;;;;;;;36.00;26.50;;;;;1.24;87.03;101930.25;6216972;22;46301;-70
2023/12/03 05:20:27;;;;;;;;;28.25;22.75;;;;;1.21;88.94;101928.47;6217123;22;45556;-70
2023/12/03 05:22:53;;;;;;;;;42.00;29.75;;;;;1.28;89.27;101932.00;6217588;22;45298;-70
2023/12/03 05:25:19;;;;;;;;;27.75;23.00;;;;;1.17;87.52;101903.25;6216978;22;45208;-70
2023/12/03 05:27:45;;;;;;;;;43.00;30.25;;;;;1.33;88.35;101935.53;6216952;22;46028;-70
2023/12/03 05:30:13;;;;;;;;;32.00;29.25;;;;;1.34;89.84;101917.28;6215741;22;45282;-70
2023/12/03 05:32:39;;;;;;;;;27.75;23.75;;;;;1.32;89.44;101907.72;6217073;22;45334;-70
2023/12/03 05:35:05;;;;;;;;;32.25;26.75;;;;;1.33;90.14;101902.53;6217075;22;45269;-70
2023/12/03 05:37:31;;;;;;;;;26.75;24.75;;;;;1.40;89.89;101916.47;6217121;22;45997;-70
2023/12/03 05:39:56;;;;;;;;;34.50;29.50;;;;;1.38;88.99;101912.97;6216070;22;45272;-70
2023/12/03 05:42:22;;;;;;;;;36.50;29.00;;;;;1.36;90.21;101912.97;6189903;22;45250;-70
2023/12/03 05:44:49;;;;;;;;;33.25;26.00;;;;;1.39;90.25;101901.69;6216194;22;45501;-70
2023/12/03 05:47:15;;;;;;;;;33.00;26.50;;;;;1.42;90.43;101907.81;6216946;22;45646;-70
2023/12/03 05:49:41;;;;;;;;;31.75;25.25;;;;;1.44;89.58;101907.84;6215511;22;45270;-70
2023/12/03 05:52:07;;;;;;;;;36.00;26.00;;;;;1.40;89.76;101909.53;6216831;22;45223;-70
2023/12/03 05:54:33;;;;;;;;;37.25;30.75;;;;;1.46;89.61;101911.31;6188969;22;45263;-70
2023/12/03 05:56:58;;;;;;;;;33.25;31.00;;;;;1.38;88.72;101906.03;6216768;22;46204;-70
2023/12/03 05:59:23;;;;;;;;;45.00;34.75;;;;;1.47;89.50;101918.28;6217041;22;45202;-70
2023/12/03 06:01:49;;;;;;;;;35.75;30.25;;;;;1.43;90.59;101920.00;6216132;22;45329;-70
2023/12/03 06:04:14;;;;;;;;;45.25;32.50;;;;;1.46;90.30;101930.44;6189813;22;45360;-70
2023/12/03 06:06:40;;;;;;;;;42.50;32.50;;;;;1.47;89.50;101932.16;6189521;22;46069;-70
2023/12/03 06:09:05;;;;;;;;;37.50;34.50;;;;;1.41;91.46;101908.66;6216930;22;45153;-70
2023/12/03 06:11:35;;;;;;;;;50.25;34.50;;;;;1.42;88.92;101907.81;6216430;22;45189;-70
2023/12/03 06:14:01;;;;;;;;;34.50;30.25;;;;;1.39;90.25;101907.78;6215942;22;45362;-70
2023/12/03 06:16:26;;;;;;;;;46.00;32.75;;;;;1.41;90.16;101908.66;6188883;22;47228;-69
2023/12/03 06:18:52;;;;;;;;;37.25;33.50;;;;;1.36;91.08;101904.28;6216251;22;45241;-70
2023/12/03 06:21:17;;;;;;;;;41.75;35.25;;;;;1.39;91.45;101909.50;6216650;22;45221;-70
2023/12/03 06:23:42;;;;;;;;;41.50;33.50;;;;;1.18;92.81;101873.72;6214904;22;45234;-70
2023/12/03 06:26:08;;;;;;;;;36.75;33.25;;;;;1.44;92.49;101900.00;6189861;22;48066;-70
2023/12/03 06:28:34;;;;;;;;;42.50;36.25;;;;;1.38;91.59;101895.59;6190043;22;45507;-69
2023/12/03 06:31:00;;;;;;;;;50.00;35.25;;;;;1.40;92.49;101898.25;6216292;22;45260;-70
2023/12/03 06:33:25;;;;;;;;;45.75;37.50;;;;;1.46;93.30;101919.13;6216463;22;45138;-70
2023/12/03 06:35:53;;;;;;;;;51.00;41.00;;;;;1.31;92.60;101888.59;6216370;22;45202;-70
2023/12/03 06:38:18;;;;;;;;;42.00;31.00;;;;;1.42;92.93;101902.59;6216391;22;45181;-70
2023/12/03 06:40:44;;;;;;;;;48.25;36.25;;;;;1.43;94.17;101909.56;6189381;22;45145;-70
2023/12/03 06:43:09;;;;;;;;;46.25;35.00;;;;;1.51;91.85;101914.81;6216563;22;45138;-70
2023/12/03 06:45:37;;;;;;;;;45.00;39.25;;;;;1.50;94.82;101906.16;6188987;22;47988;-70
2023/12/03 06:48:03;;;;;;;;;45.00;36.50;;;;;1.40;94.49;101883.47;6216130;22;45201;-70
2023/12/03 06:50:28;;;;;;;;;41.75;34.00;;;;;1.49;93.04;101896.56;6216541;22;45332;-70
2023/12/03 06:52:53;;;;;;;;;43.00;35.75;;;;;1.38;92.14;101872.16;6216667;22;45231;-69
2023/12/03 06:55:19;;;;;;;;;38.75;33.00;;;;;1.50;92.94;101895.72;6216390;22;45251;-69
2023/12/03 06:57:44;;;;;;;;;36.50;28.00;;;;;1.41;93.25;101886.94;6216458;22;45221;-69
2023/12/03 07:00:10;;;;;;;;;50.50;38.25;;;;;1.60;91.76;101922.72;6215931;22;45205;-69
2023/12/03 07:02:36;;;;;;;;;42.75;35.25;;;;;1.61;93.50;101910.53;6216066;22;45279;-70
2023/12/03 07:05:02;;;;;;;;;39.25;32.75;;;;;1.61;92.41;101926.19;6216382;22;45329;-70
2023/12/03 07:07:27;;;;;;;;;44.25;28.00;;;;;1.63;91.17;101921.88;6216364;22;45181;-69
2023/12/03 07:09:52;;;;;;;;;42.00;35.50;;;;;1.60;90.72;101914.03;6216792;22;45594;-70
2023/12/03 07:12:18;;;;;;;;;33.00;31.50;;;;;1.63;91.74;101919.25;6187923;22;45296;-70
2023/12/03 07:14:43;;;;;;;;;42.00;36.50;;;;;1.62;90.65;101909.69;6216365;22;45198;-70
2023/12/03 07:17:09;;;;;;;;;35.00;25.00;;;;;1.61;90.34;101898.38;6215447;22;45238;-70
2023/12/03 07:19:35;;;;;;;;;35.75;27.00;;;;;1.65;89.99;101904.50;6216330;22;45483;-69
2023/12/03 07:22:00;;;;;;;;;48.50;35.00;;;;;1.58;91.77;101896.63;6216255;22;45338;-69
2023/12/03 07:24:26;;;;;;;;;33.00;30.25;;;;;1.54;89.70;101878.34;6215847;22;45270;-70
2023/12/03 07:26:51;;;;;;;;;32.75;28.50;;;;;1.70;90.86;101905.41;6216256;22;45444;-69
2023/12/03 07:29:20;;;;;;;;;38.00;29.25;;;;;1.72;89.72;101916.72;6216103;22;45448;-70
2023/12/03 07:31:47;;;;;;;;;38.50;30.00;;;;;1.75;90.21;101922.81;6215552;22;45106;-69
2023/12/03 07:34:13;;;;;;;;;30.25;26.75;;;;;1.74;90.94;101925.41;6188665;22;47989;-69
2023/12/03 07:36:38;;;;;;;;;38.25;29.25;;;;;1.75;89.53;101932.38;6214931;22;45213;-70
2023/12/03 07:39:03;;;;;;;;;47.00;34.75;;;;;1.75;90.44;101933.25;6216166;22;45251;-70
2023/12/03 07:41:30;;;;;;;;;32.25;28.75;;;;;1.77;89.14;101928.03;6215908;22;45241;-71
2023/12/03 07:43:56;;;;;;;;;31.00;28.50;;;;;1.72;89.97;101914.97;6215474;22;45431;-71
2023/12/03 07:46:21;;;;;;;;;44.75;34.00;;;;;1.80;90.08;101930.69;6215251;22;45237;-71
2023/12/03 07:48:46;;;;;;;;;30.50;28.25;;;;;1.69;88.99;101911.47;6188983;22;45343;-71
2023/12/03 07:51:12;;;;;;;;;31.00;24.50;;;;;1.77;91.65;101918.47;6216064;22;45415;-71
2023/12/03 07:53:39;;;;;;;;;39.25;29.75;;;;;1.80;89.06;101915.03;6216341;22;46020;-71
2023/12/03 07:56:05;;;;;;;;;34.75;31.50;;;;;1.68;91.54;101887.13;6217406;22;45208;-71
2023/12/03 07:58:30;;;;;;;;;24.75;19.75;;;;;1.76;91.28;101908.94;6190283;22;45278;-71
2023/12/03 08:00:58;;;;;;;;;34.25;28.00;;;;;1.71;92.38;101900.19;6216533;22;45209;-70
2023/12/03 08:03:23;;;;;;;;;46.50;33.25;;;;;1.76;95.05;101902.84;6189143;22;47067;-71
2023/12/03 08:05:48;;;;;;;;;36.25;31.25;;;;;1.56;94.65;101871.41;6217334;22;45182;-71
2023/12/03 08:08:14;;;;;;;;;41.50;33.25;;;;;1.57;94.42;101862.75;6217261;22;45314;-71
2023/12/03 08:10:39;;;;;;;;;28.25;27.50;;;;;1.58;95.17;101870.56;6190186;22;45173;-71
2023/12/03 08:13:05;;;;;;;;;38.50;35.00;;;;;1.74;94.73;101888.91;6216883;22;45957;-71
2023/12/03 08:15:30;;;;;;;;;38.50;29.50;;;;;1.70;95.51;101888.03;6217055;22;45114;-71
2023/12/03 08:17:55;;;;;;;;;48.50;38.75;;;;;1.75;95.59;101885.44;6217613;22;45268;-71
2023/12/03 08:20:21;;;;;;;;;32.00;30.00;;;;;1.71;95.51;101870.63;6217532;22;45237;-71
2023/12/03 08:22:46;;;;;;;;;31.25;30.25;;;;;1.69;96.54;101872.38;6216656;22;45340;-71
2023/12/03 08:25:12;;;;;;;;;35.50;28.25;;;;;1.75;96.27;101875.88;6217345;22;45423;-71
2023/12/03 08:27:37;;;;;;;;;29.25;27.25;;;;;1.77;94.39;101881.09;6189448;22;45371;-71
2023/12/03 08:30:06;;;;;;;;;33.50;30.00;;;;;1.73;95.42;101874.13;6189478;22;45368;-71
2023/12/03 08:32:31;;;;;;;;;30.25;28.25;;;;;1.77;94.23;101881.09;6189278;22;48320;-70
2023/12/03 08:34:56;;;;;;;;;34.00;29.75;;;;;1.76;94.56;101879.38;6215233;22;45158;-71
2023/12/03 08:37:22;;;;;;;;;37.25;28.25;;;;;1.77;95.25;101881.09;6217723;22;45392;-71
2023/12/03 08:39:48;;;;;;;;;36.75;25.00;;;;;1.81;92.40;101881.13;6214800;22;45439;-71
2023/12/03 08:42:15;;;;;;;;;40.75;29.75;;;;;1.78;93.78;101878.50;6189420;22;48014;-71
2023/12/03 08:44:40;;;;;;;;;34.75;28.25;;;;;1.83;94.04;101889.81;6216367;22;45410;-71
2023/12/03 08:47:06;;;;;;;;;36.50;32.75;;;;;1.86;93.15;101886.38;6216621;22;45320;-71
2023/12/03 08:49:31;;;;;;;;;35.00;27.25;;;;;1.87;92.94;101878.53;6215547;22;45189;-71
2023/12/03 08:51:56;;;;;;;;;35.00;24.00;;;;;1.90;93.15;101882.91;6189965;22;45177;-71
2023/12/03 08:54:22;;;;;;;;;40.25;29.50;;;;;1.77;91.32;101855.88;6216918;22;45296;-71
2023/12/03 08:56:47;;;;;;;;;45.50;32.75;;;;;1.93;92.86;101877.72;6189814;22;45329;-71
2023/12/03 08:59:13;;;;;;;;;38.50;28.25;;;;;1.95;90.97;101874.25;6216211;22;45502;-71
2023/12/03 09:01:39;;;;;;;;;36.00;29.25;;;;;1.97;91.70;101872.50;6216222;22;46300;-71
2023/12/03 09:04:04;;;;;;;;;27.50;24.50;;;;;1.96;91.61;101857.72;6216371;22;45295;-71
2023/12/03 09:06:31;;;;;;;;;48.00;31.50;;;;;1.84;91.66;101841.16;6216638;22;45233;-71
2023/12/03 09:08:56;;;;;;;;;28.25;26.00;;;;;1.99;89.90;101870.81;6216559;22;45201;-71
2023/12/03 09:11:22;;;;;;;;;36.25;30.75;;;;;1.93;90.66;101849.03;6216659;22;46051;-71
2023/12/03 09:13:47;;;;;;;;;33.25;31.25;;;;;2.02;90.07;101865.59;6215794;22;45253;-71
2023/12/03 09:16:13;;;;;;;;;29.00;26.50;;;;;2.06;89.53;101869.09;6189468;22;45207;-71
2023/12/03 09:18:38;;;;;;;;;37.75;31.00;;;;;2.06;90.07;101856.91;6216551;22;45126;-71
2023/12/03 09:21:08;;;;;;;;;33.25;25.00;;;;;2.07;90.07;101853.44;6216471;22;45368;-71
2023/12/03 09:23:34;;;;;;;;;36.75;30.25;;;;;2.01;90.81;101848.19;6216948;22;45454;-71
2023/12/03 09:26:00;;;;;;;;;38.75;30.75;;;;;2.17;89.01;101858.69;6216560;22;45188;-72
2023/12/03 09:28:25;;;;;;;;;38.50;30.25;;;;;2.25;90.81;101857.88;6217072;22;45459;-71
2023/12/03 09:30:51;;;;;;;;;30.75;28.25;;;;;2.31;88.56;101852.66;6215905;22;46044;-71
2023/12/03 09:33:17;;;;;;;;;30.50;21.75;;;;;2.33;90.39;101843.09;6216880;22;45239;-71
2023/12/03 09:35:42;;;;;;;;;32.50;29.00;;;;;2.40;90.74;101844.84;6216586;22;45223;-71
2023/12/03 09:38:07;;;;;;;;;41.50;30.00;;;;;2.42;88.50;101850.94;6216209;22;45119;-72
2023/12/03 09:40:33;;;;;;;;;28.25;24.00;;;;;2.26;87.83;101828.28;6216646;22;46387;-71
2023/12/03 09:43:03;;;;;;;;;32.00;24.25;;;;;2.44;89.45;101856.19;6189667;22;45704;-72
2023/12/03 09:45:31;;;;;;;;;32.75;22.50;;;;;2.45;86.73;101855.31;6216451;22;45253;-71
2023/12/03 09:48:01;;;;;;;;;27.75;27.75;;;;;2.44;87.30;101857.06;6216684;22;45186;-71
2023/12/03 09:50:30;;;;;;;;;35.50;25.75;;;;;2.49;87.15;101862.28;6216490;22;45516;-71
2023/12/03 09:52:56;;;;;;;;;37.75;24.00;;;;;2.51;88.04;101866.66;6217110;22;45419;-71
2023/12/03 09:55:25;;;;;;;;;40.25;28.00;;;;;2.56;87.89;101867.53;6217031;22;45278;-71
2023/12/03 09:57:54;;;;;;;;;36.00;25.75;;;;;2.54;85.66;101861.44;6216732;22;45265;-71
2023/12/03 10:00:21;;;;;;;;;26.50;25.50;;;;;2.56;85.70;101867.53;6188991;22;48117;-71
2023/12/03 10:02:49;;;;;;;;;36.50;24.75;;;;;2.55;85.76;101864.94;6216338;22;45223;-74
2023/12/03 10:05:15;;;;;;;;;32.00;27.00;;;;;2.31;85.40;101816.13;6189414;22;45260;-74
2023/12/03 10:07:41;;;;;;;;;30.50;27.00;;;;;2.59;86.60;101858.81;6215797;22;45359;-74
2023/12/03 10:10:10;;;;;;;;;21.25;17.75;;;;;2.62;84.96;101854.47;6188741;22;46793;-74
2023/12/03 10:12:43;;;;;;;;;32.75;28.75;;;;;2.70;86.75;101867.56;6215731;22;45337;-74
2023/12/03 10:15:10;;;;;;;;;31.50;21.00;;;;;2.73;84.88;101870.19;6215671;22;45221;-74
2023/12/03 10:17:37;;;;;;;;;26.00;22.25;;;;;2.72;84.68;101859.72;6216296;22;45376;-74
2023/12/03 10:20:21;;;;;;;;;30.25;23.25;;;;;2.75;83.55;101859.75;6216453;22;45222;-74
2023/12/03 10:22:50;;;;;;;;;34.00;30.25;;;;;2.76;84.74;101861.47;6189220;22;45214;-74
2023/12/03 10:25:32;;;;;;;;;36.75;27.75;;;;;2.79;84.06;101843.19;6216785;22;45197;-74
2023/12/03 10:28:02;;;;;;;;;28.25;24.75;;;;;2.82;83.77;101838.84;6216721;22;45210;-75
2023/12/03 10:30:27;;;;;;;;;32.75;31.25;;;;;2.84;83.89;101831.00;6188124;22;47184;-74
2023/12/03 10:32:56;;;;;;;;;36.00;30.75;;;;;2.74;84.55;101816.19;6216585;22;45240;-74
2023/12/03 10:35:22;;;;;;;;;28.25;23.25;;;;;2.76;83.41;101811.84;6216993;22;45253;-74
2023/12/03 10:37:48;;;;;;;;;32.00;24.50;;;;;2.88;86.29;101830.16;6216632;22;45392;-74
2023/12/03 10:40:14;;;;;;;;;41.00;35.75;;;;;2.91;84.58;101827.53;6216436;22;45240;-74
2023/12/03 10:42:40;;;;;;;;;27.00;23.00;;;;;2.89;85.10;101819.69;6216460;22;45205;-74
2023/12/03 10:45:07;;;;;;;;;37.25;23.50;;;;;2.99;83.09;101820.56;6216624;22;45241;-74
2023/12/03 10:47:36;;;;;;;;;29.25;24.25;;;;;3.02;84.68;101808.38;6215844;22;45266;-73
2023/12/03 10:50:05;;;;;;;;;33.50;28.25;;;;;3.07;84.07;101819.72;6216246;22;45221;-74
2023/12/03 10:52:32;;;;;;;;;30.00;26.00;;;;;3.10;82.15;101809.25;6216158;22;45165;-73
2023/12/03 10:54:58;;;;;;;;;25.00;18.75;;;;;3.11;84.32;101808.34;6216222;22;45259;-73
2023/12/03 10:57:27;;;;;;;;;42.75;30.50;;;;;3.17;85.99;101799.66;6216322;22;45287;-74
2023/12/03 11:00:09;;;;;;;;;33.50;29.50;;;;;3.24;85.52;101790.06;6215333;22;45777;-73
2023/12/03 11:02:46;;;;;;;;;47.00;33.75;;;;;3.37;84.07;101790.03;6216412;22;45191;-73
2023/12/03 11:05:23;;;;;;;;;30.75;25.25;;;;;3.42;83.95;101774.34;6189723;22;45322;-73
2023/12/03 11:07:49;;;;;;;;;59.75;39.25;;;;;3.53;82.70;101762.13;6215993;22;45217;-73